createdAt,value
2017-07-14T00:00:15.335Z,99.3
2017-07-14T00:00:35.645Z,99.1
2017-07-14T00:00:55.913Z,99.3
2017-07-14T00:01:16.210Z,99.4
2017-07-14T00:01:36.461Z,99.6
2017-07-14T00:01:56.721Z,98.9
2017-07-14T00:02:16.977Z,99.4
2017-07-14T00:02:37.272Z,99.5
2017-07-14T00:02:57.540Z,99.3
2017-07-14T00:03:17.863Z,98.9
2017-07-14T00:03:38.175Z,99.3
2017-07-14T00:03:58.487Z,99.6
2017-07-14T00:04:18.753Z,99.3
2017-07-14T00:04:39.067Z,99.2
2017-07-14T00:04:59.395Z,99.1
2017-07-14T00:05:19.646Z,99
2017-07-14T00:05:39.924Z,99.3
2017-07-14T00:06:00.296Z,99.3
2017-07-14T00:06:20.579Z,99
2017-07-14T00:06:40.940Z,99.4
2017-07-14T00:07:15.800Z,99.3
2017-07-14T00:07:36.072Z,99.3
2017-07-14T00:07:56.367Z,99.3
2017-07-14T00:08:16.636Z,99.3
2017-07-14T00:08:36.890Z,99.5
2017-07-14T00:08:57.149Z,99.4
2017-07-14T00:09:17.420Z,99.3
2017-07-14T00:09:37.669Z,98.7
2017-07-14T00:09:57.980Z,98.8
2017-07-14T00:10:18.266Z,99
2017-07-14T00:10:38.647Z,98.9
2017-07-14T00:10:58.908Z,98.9
2017-07-14T00:11:19.183Z,98.8
2017-07-14T00:11:39.514Z,98.8
2017-07-14T00:11:59.795Z,98.8
2017-07-14T00:12:20.047Z,99.3
2017-07-14T00:12:40.306Z,99.2
2017-07-14T00:13:00.609Z,98.8
2017-07-14T00:13:20.926Z,98.7
2017-07-14T00:13:41.185Z,99.1
2017-07-14T00:14:01.496Z,99.3
2017-07-14T00:14:21.818Z,99.1
2017-07-14T00:14:42.092Z,98.6
2017-07-14T00:15:02.365Z,99.2
2017-07-14T00:15:22.649Z,98.9
2017-07-14T00:15:42.929Z,99.1
2017-07-14T00:16:03.187Z,99.2
2017-07-14T00:16:23.450Z,98.8
2017-07-14T00:16:43.738Z,99.5
2017-07-14T00:17:04.027Z,98.7
2017-07-14T00:17:24.352Z,98.9
2017-07-14T00:17:44.624Z,98.7
2017-07-14T00:18:04.904Z,98.9
2017-07-14T00:18:25.183Z,98.6
2017-07-14T00:18:45.458Z,98.3
2017-07-14T00:19:05.749Z,98.4
2017-07-14T00:19:26.062Z,98.7
2017-07-14T00:19:46.393Z,98.7
2017-07-14T00:20:06.690Z,98.6
2017-07-14T00:20:26.940Z,98.7
2017-07-14T00:20:47.205Z,99.1
2017-07-14T00:21:07.501Z,98.7
2017-07-14T00:21:27.757Z,98.9
2017-07-14T00:21:48.011Z,99.5
2017-07-14T00:22:08.255Z,99.5
2017-07-14T00:22:28.591Z,99.1
2017-07-14T00:22:48.875Z,99.1
2017-07-14T00:23:09.141Z,99.3
2017-07-14T00:23:29.415Z,99.1
2017-07-14T00:23:49.667Z,99
2017-07-14T00:24:09.917Z,99.1
2017-07-14T00:24:30.180Z,98.9
2017-07-14T00:24:50.426Z,98.9
2017-07-14T00:25:10.705Z,98.8
2017-07-14T00:25:30.962Z,98.8
2017-07-14T00:25:51.228Z,99
2017-07-14T00:26:11.471Z,98.8
2017-07-14T00:26:31.759Z,98.8
2017-07-14T00:26:52.020Z,98.8
2017-07-14T00:27:12.581Z,99.4
2017-07-14T00:27:32.903Z,99.3
2017-07-14T00:27:53.236Z,98.9
2017-07-14T00:28:13.501Z,98.9
2017-07-14T00:28:33.801Z,99.3
2017-07-14T00:28:54.102Z,99.2
2017-07-14T00:29:14.413Z,99.3
2017-07-14T00:29:34.668Z,99
2017-07-14T00:29:54.969Z,99.4
2017-07-14T00:30:15.241Z,99.4
2017-07-14T00:30:35.525Z,99.2
2017-07-14T00:30:55.808Z,99.1
2017-07-14T00:31:16.081Z,99.3
2017-07-14T00:31:36.346Z,99.2
2017-07-14T00:31:56.613Z,98.7
2017-07-14T00:32:16.929Z,99
2017-07-14T00:32:37.273Z,98.8
2017-07-14T00:32:57.530Z,98.7
2017-07-14T00:33:17.838Z,99.2
2017-07-14T00:33:38.109Z,98.7
2017-07-14T00:33:58.376Z,98.9
2017-07-14T00:34:18.695Z,99.3
2017-07-14T00:34:38.975Z,98.8
2017-07-14T00:34:59.233Z,98.6
2017-07-14T00:35:19.551Z,98.7
2017-07-14T00:35:39.828Z,98.4
2017-07-14T00:36:00.089Z,99
2017-07-14T00:36:20.358Z,98
2017-07-14T00:36:40.639Z,98
2017-07-14T00:37:00.900Z,97.8
2017-07-14T00:37:21.158Z,97.7
2017-07-14T00:37:41.436Z,98.1
2017-07-14T00:38:01.689Z,98.3
2017-07-14T00:38:21.945Z,98.3
2017-07-14T00:38:42.241Z,98
2017-07-14T00:39:02.524Z,97.5
2017-07-14T00:39:22.802Z,98.1
2017-07-14T00:39:43.058Z,97.8
2017-07-14T00:40:03.319Z,97.9
2017-07-14T00:40:23.579Z,98
2017-07-14T00:40:43.883Z,97.9
2017-07-14T00:41:04.186Z,97.5
2017-07-14T00:41:24.467Z,98.1
2017-07-14T00:41:44.721Z,98
2017-07-14T00:42:04.980Z,97.8
2017-07-14T00:42:25.237Z,98.1
2017-07-14T00:42:45.513Z,97.7
2017-07-14T00:43:05.849Z,98.3
2017-07-14T00:43:26.168Z,98
2017-07-14T00:43:46.465Z,98.3
2017-07-14T00:44:06.734Z,98
2017-07-14T00:44:26.987Z,98
2017-07-14T00:44:47.269Z,98.5
2017-07-14T00:45:07.553Z,98.8
2017-07-14T00:45:27.804Z,98.9
2017-07-14T00:45:48.117Z,98.9
2017-07-14T00:46:08.424Z,98.4
2017-07-14T00:46:28.772Z,98.7
2017-07-14T00:46:49.037Z,98.9
2017-07-14T00:47:09.344Z,98.6
2017-07-14T00:47:29.598Z,99.2
2017-07-14T00:47:49.899Z,99.4
2017-07-14T00:48:10.189Z,98.8
2017-07-14T00:48:30.536Z,99
2017-07-14T00:48:50.850Z,98.8
2017-07-14T00:49:11.120Z,99
2017-07-14T00:49:31.379Z,99.2
2017-07-14T00:49:51.642Z,99.4
2017-07-14T00:50:11.896Z,99.3
2017-07-14T00:50:32.210Z,99.4
2017-07-14T00:50:52.485Z,99
2017-07-14T00:51:12.749Z,99.4
2017-07-14T00:51:32.991Z,99.4
2017-07-14T00:51:53.358Z,99.4
2017-07-14T00:52:13.654Z,100
2017-07-14T00:52:33.954Z,99.7
2017-07-14T00:52:54.256Z,99.4
2017-07-14T00:53:14.606Z,99.5
2017-07-14T00:53:34.868Z,99.2
2017-07-14T00:53:55.119Z,99.8
2017-07-14T00:54:15.361Z,99.7
2017-07-14T00:54:35.653Z,99.4
2017-07-14T00:54:55.920Z,99.3
2017-07-14T00:55:16.185Z,99.3
2017-07-14T00:55:36.453Z,99.4
2017-07-14T00:55:56.712Z,99.4
2017-07-14T00:56:16.998Z,99.2
2017-07-14T00:56:37.260Z,99.5
2017-07-14T00:56:57.568Z,99.2
2017-07-14T00:57:17.838Z,99.8
2017-07-14T00:57:38.111Z,99.6
2017-07-14T00:57:58.414Z,99.8
2017-07-14T00:58:18.715Z,100
2017-07-14T00:58:38.972Z,100
2017-07-14T00:58:59.260Z,100
2017-07-14T00:59:19.579Z,100
2017-07-14T00:59:39.840Z,100
2017-07-14T01:00:00.103Z,100
2017-07-14T01:00:20.368Z,99.9
2017-07-14T01:00:40.644Z,99.9
2017-07-14T01:01:00.937Z,99.9
2017-07-14T01:01:21.251Z,100
2017-07-14T01:01:41.522Z,100
2017-07-14T01:02:01.792Z,99.9
2017-07-14T01:02:22.071Z,99.9
2017-07-14T01:02:42.325Z,100
2017-07-14T01:03:02.635Z,100
2017-07-14T01:03:22.914Z,100
2017-07-14T01:03:43.164Z,99.7
2017-07-14T01:04:03.446Z,100
2017-07-14T01:04:23.715Z,100
2017-07-14T01:04:44.032Z,100
2017-07-14T01:05:04.321Z,100
2017-07-14T01:05:24.591Z,100
2017-07-14T01:05:44.882Z,100
2017-07-14T01:06:05.215Z,99.9
2017-07-14T01:06:25.535Z,99.9
2017-07-14T01:06:45.802Z,100
2017-07-14T01:07:06.100Z,100
2017-07-14T01:07:26.414Z,99.6
2017-07-14T01:07:46.676Z,100
2017-07-14T01:08:06.937Z,100
2017-07-14T01:08:27.305Z,100
2017-07-14T01:08:47.577Z,100
2017-07-14T01:09:07.840Z,100
2017-07-14T01:09:28.113Z,100
2017-07-14T01:09:48.415Z,99.6
2017-07-14T01:10:08.713Z,99.7
2017-07-14T01:10:29.069Z,99.8
2017-07-14T01:10:49.344Z,100
2017-07-14T01:11:09.639Z,99.8
2017-07-14T01:11:29.915Z,99.6
2017-07-14T01:11:50.186Z,99.6
2017-07-14T01:12:10.504Z,99.7
2017-07-14T01:12:30.807Z,99.8
2017-07-14T01:12:51.067Z,99.4
2017-07-14T01:13:11.322Z,99.5
2017-07-14T01:13:31.580Z,99.2
2017-07-14T01:13:52.870Z,99.5
2017-07-14T01:14:13.184Z,99.4
2017-07-14T01:14:33.438Z,99.7
2017-07-14T01:14:53.714Z,99.7
2017-07-14T01:15:14.057Z,99.8
2017-07-14T01:15:34.318Z,99.6
2017-07-14T01:15:54.588Z,99.6
2017-07-14T01:16:14.895Z,99.8
2017-07-14T01:16:35.215Z,99.4
2017-07-14T01:16:55.485Z,99.9
2017-07-14T01:17:15.871Z,99.1
2017-07-14T01:17:36.166Z,99.4
2017-07-14T01:17:56.448Z,99.5
2017-07-14T01:18:16.723Z,99
2017-07-14T01:18:36.989Z,99.4
2017-07-14T01:18:57.249Z,99.6
2017-07-14T01:19:17.538Z,99.4
2017-07-14T01:19:37.802Z,99.4
2017-07-14T01:19:58.068Z,99.4
2017-07-14T01:20:18.421Z,99.4
2017-07-14T01:20:38.681Z,99.2
2017-07-14T01:20:58.938Z,99.5
2017-07-14T01:21:19.217Z,99.8
2017-07-14T01:21:39.542Z,99.8
2017-07-14T01:21:59.806Z,99.8
2017-07-14T01:22:20.123Z,100
2017-07-14T01:22:40.437Z,100
2017-07-14T01:23:00.786Z,100
2017-07-14T01:23:21.102Z,99.9
2017-07-14T01:23:41.360Z,99.9
2017-07-14T01:24:01.667Z,100
2017-07-14T01:24:21.924Z,100
2017-07-14T01:24:42.230Z,99.9
2017-07-14T01:25:02.498Z,100
2017-07-14T01:25:22.768Z,100
2017-07-14T01:25:43.026Z,100
2017-07-14T01:26:03.311Z,100
2017-07-14T01:26:23.605Z,99.9
2017-07-14T01:26:43.880Z,100
2017-07-14T01:27:04.150Z,99.6
2017-07-14T01:27:24.451Z,99.5
2017-07-14T01:27:44.717Z,99.7
2017-07-14T01:28:04.978Z,99.5
2017-07-14T01:28:25.234Z,99.5
2017-07-14T01:28:45.534Z,99.5
2017-07-14T01:29:05.830Z,99.6
2017-07-14T01:29:26.088Z,99.6
2017-07-14T01:29:46.399Z,99.6
2017-07-14T01:30:06.721Z,99.4
2017-07-14T01:30:27.006Z,99.7
2017-07-14T01:30:47.353Z,99.8
2017-07-14T01:31:07.628Z,99.8
2017-07-14T01:31:27.901Z,99.8
2017-07-14T01:31:48.239Z,99.7
2017-07-14T01:32:08.499Z,99.4
2017-07-14T01:32:28.765Z,99.9
2017-07-14T01:32:49.042Z,99.6
2017-07-14T01:33:09.352Z,99.2
2017-07-14T01:33:29.608Z,99.7
2017-07-14T01:33:49.865Z,99.7
2017-07-14T01:34:10.178Z,100
2017-07-14T01:34:30.445Z,99.8
2017-07-14T01:34:50.726Z,100
2017-07-14T01:35:11.022Z,100
2017-07-14T01:35:31.283Z,100
2017-07-14T01:35:51.548Z,100
2017-07-14T01:36:11.865Z,100
2017-07-14T01:36:32.142Z,100
2017-07-14T01:36:52.415Z,100
2017-07-14T01:37:12.709Z,100
2017-07-14T01:37:32.980Z,99.9
2017-07-14T01:37:53.242Z,99.9
2017-07-14T01:38:13.546Z,100
2017-07-14T01:38:33.810Z,100
2017-07-14T01:38:54.113Z,100
2017-07-14T01:39:14.416Z,100
2017-07-14T01:39:34.679Z,100
2017-07-14T01:39:55.000Z,100
2017-07-14T01:40:15.270Z,100
2017-07-14T01:40:35.547Z,100
2017-07-14T01:40:55.806Z,99.9
2017-07-14T01:41:16.072Z,100
2017-07-14T01:41:36.384Z,100
2017-07-14T01:41:56.657Z,100
2017-07-14T01:42:16.923Z,100
2017-07-14T01:42:37.218Z,100
2017-07-14T01:42:57.487Z,99.9
2017-07-14T01:43:17.759Z,99.9
2017-07-14T01:43:38.086Z,100
2017-07-14T01:43:58.348Z,99.9
2017-07-14T01:44:18.649Z,100
2017-07-14T01:44:38.900Z,100
2017-07-14T01:44:59.186Z,100
2017-07-14T01:45:19.440Z,100
2017-07-14T01:45:39.742Z,100
2017-07-14T01:46:00.004Z,100
2017-07-14T01:46:20.262Z,100
2017-07-14T01:46:40.623Z,100
2017-07-14T01:47:00.903Z,100
2017-07-14T01:47:21.156Z,100
2017-07-14T01:47:41.428Z,100
2017-07-14T01:48:01.697Z,100
2017-07-14T01:48:21.955Z,100
2017-07-14T01:48:42.213Z,100
2017-07-14T01:49:02.482Z,100
2017-07-14T01:49:22.752Z,100
2017-07-14T01:49:43.003Z,100
2017-07-14T01:50:03.275Z,100
2017-07-14T01:50:23.527Z,100
2017-07-14T01:50:43.778Z,100
2017-07-14T01:51:04.034Z,100
2017-07-14T01:51:24.318Z,100
2017-07-14T01:51:44.623Z,100
2017-07-14T01:52:04.941Z,100
2017-07-14T01:52:25.199Z,100
2017-07-14T01:52:45.514Z,100
2017-07-14T01:53:05.830Z,100
2017-07-14T01:53:26.084Z,100
2017-07-14T01:53:46.345Z,100
2017-07-14T01:54:06.607Z,100
2017-07-14T01:54:26.894Z,100
2017-07-14T01:54:47.147Z,100
2017-07-14T01:55:07.414Z,100
2017-07-14T01:55:27.799Z,100
2017-07-14T01:55:48.092Z,100
2017-07-14T01:56:08.398Z,100
2017-07-14T01:56:28.672Z,100
2017-07-14T01:56:48.930Z,100
2017-07-14T01:57:09.197Z,100
2017-07-14T01:57:29.481Z,100
2017-07-14T01:57:49.722Z,100
2017-07-14T01:58:10.077Z,100
2017-07-14T01:58:30.342Z,100
2017-07-14T01:58:50.605Z,100
2017-07-14T01:59:10.874Z,100
2017-07-14T01:59:31.181Z,100
2017-07-14T01:59:51.443Z,100
2017-07-14T02:00:11.759Z,100
2017-07-14T02:00:32.117Z,100
2017-07-14T02:00:52.422Z,100
2017-07-14T02:01:12.750Z,100
2017-07-14T02:01:33.054Z,100
2017-07-14T02:01:53.312Z,100
2017-07-14T02:02:13.561Z,100
2017-07-14T02:02:33.831Z,100
2017-07-14T02:02:54.105Z,100
2017-07-14T02:03:14.371Z,100
2017-07-14T02:03:34.675Z,100
2017-07-14T02:03:54.933Z,100
2017-07-14T02:04:15.192Z,100
2017-07-14T02:04:35.472Z,100
2017-07-14T02:04:55.724Z,100
2017-07-14T02:05:15.988Z,100
2017-07-14T02:05:36.254Z,100
2017-07-14T02:05:56.522Z,100
2017-07-14T02:06:16.789Z,100
2017-07-14T02:06:37.033Z,100
2017-07-14T02:06:57.289Z,100
2017-07-14T02:07:17.661Z,100
2017-07-14T02:07:38.027Z,100
2017-07-14T02:07:58.290Z,100
2017-07-14T02:08:18.561Z,100
2017-07-14T02:08:38.800Z,100
2017-07-14T02:08:59.077Z,100
2017-07-14T02:09:19.349Z,100
2017-07-14T02:09:39.595Z,100
2017-07-14T02:09:59.865Z,100
2017-07-14T02:10:20.125Z,100
2017-07-14T02:10:40.423Z,100
2017-07-14T02:11:00.765Z,100
2017-07-14T02:11:21.025Z,100
2017-07-14T02:11:41.288Z,100
2017-07-14T02:12:01.547Z,100
2017-07-14T02:12:21.816Z,100
2017-07-14T02:12:42.153Z,100
2017-07-14T02:13:02.421Z,100
2017-07-14T02:13:22.769Z,100
2017-07-14T02:13:43.070Z,100
2017-07-14T02:14:03.317Z,100
2017-07-14T02:14:23.587Z,100
2017-07-14T02:14:43.853Z,100
2017-07-14T02:15:04.109Z,100
2017-07-14T02:15:24.458Z,100
2017-07-14T02:15:44.732Z,100
2017-07-14T02:16:04.999Z,100
2017-07-14T02:16:25.277Z,100
2017-07-14T02:16:45.543Z,100
2017-07-14T02:17:05.895Z,100
2017-07-14T02:17:26.184Z,100
2017-07-14T02:17:46.541Z,100
2017-07-14T02:18:06.828Z,100
2017-07-14T02:18:27.178Z,100
2017-07-14T02:18:47.475Z,100
2017-07-14T02:19:07.735Z,100
2017-07-14T02:19:28.001Z,100
2017-07-14T02:19:48.275Z,100
2017-07-14T02:20:08.560Z,100
2017-07-14T02:20:28.860Z,100
2017-07-14T02:20:49.191Z,100
2017-07-14T02:21:09.501Z,100
2017-07-14T02:21:29.805Z,100
2017-07-14T02:21:50.062Z,100
2017-07-14T02:22:10.415Z,100
2017-07-14T02:22:30.764Z,100
2017-07-14T02:22:51.071Z,100
2017-07-14T02:23:11.383Z,100
2017-07-14T02:23:31.703Z,100
2017-07-14T02:23:52.008Z,100
2017-07-14T02:24:12.298Z,100
2017-07-14T02:24:32.580Z,100
2017-07-14T02:24:52.839Z,100
2017-07-14T02:25:13.098Z,100
2017-07-14T02:25:33.392Z,100
2017-07-14T02:25:53.689Z,100
2017-07-14T02:26:13.947Z,100
2017-07-14T02:26:34.204Z,100
2017-07-14T02:26:54.459Z,100
2017-07-14T02:27:14.719Z,100
2017-07-14T02:27:35.034Z,100
2017-07-14T02:27:55.310Z,100
2017-07-14T02:28:15.622Z,100
2017-07-14T02:28:35.869Z,100
2017-07-14T02:28:56.123Z,100
2017-07-14T02:29:16.387Z,100
2017-07-14T02:29:36.644Z,100
2017-07-14T02:29:56.896Z,100
2017-07-14T02:30:17.245Z,100
2017-07-14T02:30:37.548Z,100
2017-07-14T02:30:57.890Z,100
2017-07-14T02:31:18.157Z,100
2017-07-14T02:31:38.410Z,100
2017-07-14T02:31:58.676Z,100
2017-07-14T02:32:18.984Z,100
2017-07-14T02:32:39.286Z,100
2017-07-14T02:32:59.589Z,100
2017-07-14T02:33:19.891Z,100
2017-07-14T02:33:40.220Z,100
2017-07-14T02:34:00.603Z,100
2017-07-14T02:34:20.887Z,100
2017-07-14T02:34:41.169Z,100
2017-07-14T02:35:01.421Z,100
2017-07-14T02:35:21.681Z,100
2017-07-14T02:35:41.936Z,100
2017-07-14T02:36:02.334Z,100
2017-07-14T02:36:22.610Z,100
2017-07-14T02:36:42.873Z,100
2017-07-14T02:37:03.131Z,100
2017-07-14T02:37:23.377Z,100
2017-07-14T02:37:43.656Z,100
2017-07-14T02:38:04.039Z,100
2017-07-14T02:38:24.338Z,100
2017-07-14T02:38:44.614Z,100
2017-07-14T02:39:04.926Z,100
2017-07-14T02:39:25.207Z,100
2017-07-14T02:39:45.509Z,100
2017-07-14T02:40:05.794Z,100
2017-07-14T02:40:26.061Z,100
2017-07-14T02:40:46.340Z,100
2017-07-14T02:41:06.666Z,100
2017-07-14T02:41:26.920Z,100
2017-07-14T02:41:47.192Z,100
2017-07-14T02:42:07.501Z,100
2017-07-14T02:42:27.799Z,100
2017-07-14T02:42:48.103Z,100
2017-07-14T02:43:08.388Z,100
2017-07-14T02:43:28.629Z,100
2017-07-14T02:43:48.893Z,100
2017-07-14T02:44:09.200Z,100
2017-07-14T02:44:29.537Z,100
2017-07-14T02:44:49.818Z,100
2017-07-14T02:45:10.123Z,100
2017-07-14T02:45:30.387Z,100
2017-07-14T02:45:50.696Z,100
2017-07-14T02:46:11.012Z,100
2017-07-14T02:46:31.268Z,100
2017-07-14T02:47:17.981Z,100
2017-07-14T02:47:38.264Z,100
2017-07-14T02:47:58.615Z,100
2017-07-14T02:48:18.966Z,100
2017-07-14T02:48:39.280Z,100
2017-07-14T02:48:59.541Z,100
2017-07-14T02:49:19.799Z,100
2017-07-14T02:49:40.063Z,100
2017-07-14T02:50:00.342Z,100
2017-07-14T02:50:20.652Z,100
2017-07-14T02:50:40.915Z,100
2017-07-14T02:51:01.224Z,100
2017-07-14T02:51:21.485Z,100
2017-07-14T02:51:41.756Z,100
2017-07-14T02:52:02.027Z,100
2017-07-14T02:52:22.318Z,100
2017-07-14T02:52:42.579Z,100
2017-07-14T02:53:02.859Z,100
2017-07-14T02:53:23.090Z,100
2017-07-14T02:53:43.358Z,100
2017-07-14T02:54:03.708Z,100
2017-07-14T02:54:24.059Z,100
2017-07-14T02:54:44.307Z,100
2017-07-14T02:55:04.594Z,100
2017-07-14T02:55:24.880Z,100
2017-07-14T02:55:45.145Z,100
2017-07-14T02:56:05.409Z,100
2017-07-14T02:56:25.685Z,100
2017-07-14T02:56:45.961Z,100
2017-07-14T02:57:06.237Z,100
2017-07-14T02:57:26.496Z,100
2017-07-14T02:57:46.866Z,100
2017-07-14T02:58:07.138Z,100
2017-07-14T02:58:27.395Z,100
2017-07-14T02:58:47.647Z,100
2017-07-14T02:59:07.913Z,100
2017-07-14T02:59:28.174Z,100
2017-07-14T02:59:48.448Z,100
2017-07-14T03:00:08.772Z,100
2017-07-14T03:00:29.032Z,100
2017-07-14T03:00:49.298Z,100
2017-07-14T03:01:09.557Z,100
2017-07-14T03:01:29.809Z,100
2017-07-14T03:01:50.084Z,100
2017-07-14T03:02:10.356Z,100
2017-07-14T03:02:30.640Z,100
2017-07-14T03:02:50.891Z,100
2017-07-14T03:03:11.165Z,100
2017-07-14T03:03:31.432Z,100
2017-07-14T03:03:51.728Z,100
2017-07-14T03:04:12.029Z,100
2017-07-14T03:04:32.336Z,100
2017-07-14T03:04:52.598Z,100
2017-07-14T03:05:12.871Z,100
2017-07-14T03:05:33.173Z,100
2017-07-14T03:05:53.434Z,100
2017-07-14T03:06:13.697Z,100
2017-07-14T03:06:33.993Z,100
2017-07-14T03:06:54.251Z,100
2017-07-14T03:08:53.510Z,100
2017-07-14T03:09:13.825Z,100
2017-07-14T03:09:34.141Z,100
2017-07-14T03:09:54.413Z,100
2017-07-14T03:10:14.670Z,100
2017-07-14T03:10:34.980Z,100
2017-07-14T03:10:55.250Z,100
2017-07-14T03:11:15.510Z,100
2017-07-14T03:11:35.786Z,100
2017-07-14T03:11:56.088Z,100
2017-07-14T03:12:16.350Z,100
2017-07-14T03:12:36.612Z,100
2017-07-14T03:12:56.878Z,100
2017-07-14T03:13:17.127Z,100
2017-07-14T03:13:37.442Z,100
2017-07-14T03:13:57.712Z,100
2017-07-14T03:14:17.975Z,100
2017-07-14T03:14:38.230Z,100
2017-07-14T03:14:58.483Z,100
2017-07-14T03:15:18.784Z,100
2017-07-14T03:15:39.072Z,100
2017-07-14T03:15:59.375Z,100
2017-07-14T03:16:19.684Z,100
2017-07-14T03:16:39.950Z,100
2017-07-14T03:17:00.252Z,100
2017-07-14T03:17:20.563Z,100
2017-07-14T03:17:40.905Z,100
2017-07-14T03:18:01.167Z,100
2017-07-14T03:18:21.427Z,100
2017-07-14T03:18:41.723Z,100
2017-07-14T03:19:02.025Z,100
2017-07-14T03:19:22.331Z,100
2017-07-14T03:19:42.589Z,100
2017-07-14T03:20:02.903Z,100
2017-07-14T03:20:23.164Z,100
2017-07-14T03:20:43.631Z,100
2017-07-14T03:21:04.255Z,100
2017-07-14T03:21:24.701Z,100
2017-07-14T03:21:44.975Z,100
2017-07-14T03:22:05.242Z,100
2017-07-14T03:22:25.506Z,100
2017-07-14T03:22:45.772Z,100
2017-07-14T03:23:06.053Z,100
2017-07-14T03:23:26.624Z,100
2017-07-14T03:23:46.935Z,100
2017-07-14T03:24:07.230Z,100
2017-07-14T03:24:27.552Z,100
2017-07-14T03:24:47.832Z,100
2017-07-14T03:25:08.092Z,100
2017-07-14T03:25:28.374Z,100
2017-07-14T03:25:48.643Z,100
2017-07-14T03:26:08.919Z,100
2017-07-14T03:26:29.180Z,100
2017-07-14T03:26:49.486Z,100
2017-07-14T03:27:09.747Z,100
2017-07-14T03:27:30.024Z,100
2017-07-14T03:27:50.285Z,100
2017-07-14T03:28:10.552Z,100
2017-07-14T03:28:30.855Z,100
2017-07-14T03:28:51.124Z,100
2017-07-14T03:29:11.398Z,100
2017-07-14T03:29:31.747Z,100
2017-07-14T03:29:52.004Z,100
2017-07-14T03:30:12.335Z,100
2017-07-14T03:30:32.589Z,100
2017-07-14T03:30:52.895Z,100
2017-07-14T03:31:13.227Z,100
2017-07-14T03:31:33.490Z,100
2017-07-14T03:31:53.754Z,100
2017-07-14T03:32:14.045Z,100
2017-07-14T03:32:34.312Z,100
2017-07-14T03:32:54.578Z,100
2017-07-14T03:33:14.855Z,100
2017-07-14T03:33:35.167Z,100
2017-07-14T03:33:55.453Z,100
2017-07-14T03:34:15.778Z,100
2017-07-14T03:34:36.050Z,100
2017-07-14T03:34:56.329Z,100
2017-07-14T03:35:16.593Z,100
2017-07-14T03:35:36.861Z,100
2017-07-14T03:35:57.170Z,100
2017-07-14T03:36:17.453Z,100
2017-07-14T03:36:37.726Z,100
2017-07-14T03:36:57.988Z,100
2017-07-14T03:37:18.257Z,100
2017-07-14T03:37:38.524Z,100
2017-07-14T03:37:58.844Z,100
2017-07-14T03:38:19.152Z,100
2017-07-14T03:38:39.409Z,100
2017-07-14T03:38:59.695Z,100
2017-07-14T03:39:19.994Z,100
2017-07-14T03:39:40.264Z,100
2017-07-14T03:40:00.528Z,100
2017-07-14T03:40:20.862Z,100
2017-07-14T03:40:41.177Z,100
2017-07-14T03:41:01.487Z,100
2017-07-14T03:41:21.791Z,100
2017-07-14T03:41:42.069Z,100
2017-07-14T03:42:02.383Z,100
2017-07-14T03:42:22.646Z,100
2017-07-14T03:42:42.907Z,100
2017-07-14T03:43:03.195Z,100
2017-07-14T03:43:23.496Z,100
2017-07-14T03:43:43.763Z,100
2017-07-14T03:44:04.112Z,100
2017-07-14T03:44:24.387Z,100
2017-07-14T03:44:44.691Z,100
2017-07-14T03:45:04.973Z,100
2017-07-14T03:45:25.235Z,100
2017-07-14T03:45:45.548Z,100
2017-07-14T03:46:05.913Z,100
2017-07-14T03:46:26.187Z,100
2017-07-14T03:46:46.472Z,100
2017-07-14T03:47:06.734Z,100
2017-07-14T03:47:27.014Z,100
2017-07-14T03:47:47.313Z,100
2017-07-14T03:48:07.575Z,100
2017-07-14T03:48:27.840Z,100
2017-07-14T03:49:05.164Z,100
2017-07-14T03:49:25.427Z,100
2017-07-14T03:49:45.719Z,100
2017-07-14T03:50:06.031Z,100
2017-07-14T03:50:26.294Z,100
2017-07-14T03:50:46.557Z,100
2017-07-14T03:51:06.819Z,100
2017-07-14T03:51:27.100Z,100
2017-07-14T03:51:47.402Z,100
2017-07-14T03:52:07.668Z,100
2017-07-14T03:52:27.928Z,100
2017-07-14T03:52:48.220Z,100
2017-07-14T03:53:08.493Z,100
2017-07-14T03:53:28.793Z,100
2017-07-14T03:53:49.060Z,100
2017-07-14T03:54:09.330Z,100
2017-07-14T03:54:29.609Z,100
2017-07-14T03:54:49.878Z,100
2017-07-14T03:55:10.191Z,100
2017-07-14T03:55:30.468Z,100
2017-07-14T03:55:50.744Z,100
2017-07-14T03:56:11.071Z,100
2017-07-14T03:56:31.393Z,100
2017-07-14T03:56:51.702Z,100
2017-07-14T03:57:11.973Z,100
2017-07-14T03:57:32.268Z,100
2017-07-14T03:57:52.544Z,100
2017-07-14T03:58:12.813Z,100
2017-07-14T03:58:33.071Z,100
2017-07-14T03:58:53.338Z,100
2017-07-14T03:59:13.597Z,100
2017-07-14T03:59:33.962Z,100
2017-07-14T03:59:54.279Z,100
2017-07-14T04:00:14.598Z,100
2017-07-14T04:00:34.917Z,100
2017-07-14T04:00:55.228Z,100
2017-07-14T04:01:15.556Z,100
2017-07-14T04:01:35.829Z,100
2017-07-14T04:01:56.088Z,100
2017-07-14T04:02:16.344Z,100
2017-07-14T04:02:36.613Z,100
2017-07-14T04:02:56.904Z,100
2017-07-14T04:03:17.254Z,100
2017-07-14T04:03:37.525Z,100
2017-07-14T04:03:57.796Z,100
2017-07-14T04:04:18.056Z,100
2017-07-14T04:04:38.317Z,100
2017-07-14T04:04:58.631Z,100
2017-07-14T04:05:18.991Z,100
2017-07-14T04:05:39.254Z,100
2017-07-14T04:05:59.562Z,100
2017-07-14T04:06:19.847Z,100
2017-07-14T04:06:40.133Z,100
2017-07-14T04:07:00.455Z,100
2017-07-14T04:07:20.729Z,100
2017-07-14T04:07:41.009Z,99.9
2017-07-14T04:08:01.296Z,100
2017-07-14T04:08:21.602Z,100
2017-07-14T04:08:41.883Z,100
2017-07-14T04:09:02.151Z,100
2017-07-14T04:09:22.417Z,100
2017-07-14T04:09:42.681Z,100
2017-07-14T04:10:02.990Z,100
2017-07-14T04:10:23.238Z,100
2017-07-14T04:10:43.505Z,99.9
2017-07-14T04:11:03.762Z,100
2017-07-14T04:11:24.065Z,100
2017-07-14T04:11:44.347Z,100
2017-07-14T04:12:04.616Z,100
2017-07-14T04:12:24.886Z,100
2017-07-14T04:12:45.206Z,100
2017-07-14T04:13:05.548Z,100
2017-07-14T04:13:25.945Z,100
2017-07-14T04:13:46.233Z,100
2017-07-14T04:14:06.532Z,100
2017-07-14T04:14:26.921Z,100
2017-07-14T04:14:47.222Z,100
2017-07-14T04:15:07.484Z,99.7
2017-07-14T04:15:27.745Z,99.7
2017-07-14T04:15:48.017Z,99.7
2017-07-14T04:16:08.278Z,100
2017-07-14T04:16:28.564Z,99.7
2017-07-14T04:16:48.827Z,99.9
2017-07-14T04:17:09.173Z,100
2017-07-14T04:17:29.441Z,99.8
2017-07-14T04:17:49.755Z,100
2017-07-14T04:18:10.029Z,100
2017-07-14T04:18:30.290Z,100
2017-07-14T04:18:50.554Z,99.7
2017-07-14T04:19:10.818Z,99.9
2017-07-14T04:19:31.070Z,100
2017-07-14T04:19:51.378Z,100
2017-07-14T04:20:11.654Z,100
2017-07-14T04:20:32.036Z,100
2017-07-14T04:20:52.306Z,100
2017-07-14T04:21:12.659Z,100
2017-07-14T04:21:32.924Z,100
2017-07-14T04:21:53.278Z,100
2017-07-14T04:22:13.566Z,100
2017-07-14T04:22:33.830Z,100
2017-07-14T04:22:54.128Z,100
2017-07-14T04:23:14.385Z,100
2017-07-14T04:23:34.703Z,100
2017-07-14T04:23:54.958Z,100
2017-07-14T04:24:15.271Z,100
2017-07-14T04:24:35.536Z,100
2017-07-14T04:24:55.798Z,100
2017-07-14T04:25:16.105Z,100
2017-07-14T04:25:36.375Z,100
2017-07-14T04:25:56.667Z,99.9
2017-07-14T04:26:16.941Z,100
2017-07-14T04:26:37.203Z,99.9
2017-07-14T04:26:57.475Z,100
2017-07-14T04:27:17.744Z,100
2017-07-14T04:27:38.007Z,100
2017-07-14T04:27:58.370Z,100
2017-07-14T04:28:18.645Z,100
2017-07-14T04:28:38.947Z,100
2017-07-14T04:28:59.228Z,100
2017-07-14T04:29:19.528Z,100
2017-07-14T04:29:39.788Z,100
2017-07-14T04:30:00.050Z,100
2017-07-14T04:30:20.330Z,99.7
2017-07-14T04:30:40.596Z,99.8
2017-07-14T04:31:00.855Z,99.7
2017-07-14T04:31:21.132Z,99.6
2017-07-14T04:31:41.443Z,99.9
2017-07-14T04:32:01.764Z,99.6
2017-07-14T04:32:22.048Z,99.8
2017-07-14T04:32:42.368Z,100
2017-07-14T04:33:02.648Z,100
2017-07-14T04:33:22.924Z,100
2017-07-14T04:33:43.193Z,100
2017-07-14T04:34:03.459Z,100
2017-07-14T04:34:23.773Z,99.7
2017-07-14T04:34:44.061Z,99.5
2017-07-14T04:35:04.948Z,99.6
2017-07-14T04:35:25.305Z,99.7
2017-07-14T04:35:45.617Z,99.9
2017-07-14T04:36:05.959Z,99.7
2017-07-14T04:36:26.221Z,99.5
2017-07-14T04:36:46.528Z,99.7
2017-07-14T04:37:06.881Z,99.5
2017-07-14T04:37:27.191Z,99.5
2017-07-14T04:37:47.469Z,99.6
2017-07-14T04:38:07.743Z,99.5
2017-07-14T04:38:28.050Z,99.5
2017-07-14T04:38:48.314Z,99.3
2017-07-14T04:39:08.595Z,99.6